• pl
  • eng

Awiacja
TAF dla lotnisk wojskowych 06:30 18.02.2018

TAF EPCE 180500Z 1806/1815 VRB02KT 5000 BR SCT003 BKN020 BECMG
1808/1810 27006KT 9999 BKN030 =

TAF EPDA 180500Z 1806/1815 VRB03KT 9999 BKN025 PROB40 TEMPO 1806/1812
5000 -SHRASN BKN015TCU =

TAF EPKS 180500Z 1806/1815 34006KT 9999 BKN010 BECMG 1808/1811 BKN020
BECMG 1812/1814 SCT030 =

TAF EPLY 180500Z 1806/1815 33006KT 8000 SCT017 BKN040 PROB40
1806/1808 4000 BR SCT006 BKN027=

TAF EPMB 180500Z 1806/1815 33006KT 9999 BKN030 PROB40 TEMPO 1806/1813
5000 SHSNRA BKN015TCU PROB40 1806/1815 SCT040 BECMG 1812/1814
27006KT=

TAF EPMM 180500Z 1806/1815 35008KT 9999 SCT020 BKN060 PROB30
1806/1808 2000 BR BKN005 =

TAF AMD EPOK 180500Z 1806/1815 28006KT 9999 BKN030 PROB30 TEMPO
1808/1815 4000 SHRASN BKN007 BKN010CB =

TAF EPOK 180500Z 1806/1815 28006KT 9999 BKN030 =

TAF EPPW 180500Z 1806/1815 32006KT 7000 NSW SCT015 OVC025 PROB40
1806/1808 3000 BR BKN005=

TAF EPSN 180500Z 1806/1815 28004KT 9999 BKN017 PROB40 TEMPO 1806/1809
5000 BR BKN005 PROB30 TEMPO 1806/1810 4000 SHSN BKN006 BKN010CB
=
Awiacja.imgw.pl jest pogodowym serwisem informacyjnym
Instytutu Meteorologii i Gospodarki Wodnej Państwowego Instytutu Badawczego.
Copyright IMGW PIB 2009-2011© Wszelkie prawa zastrzeżone.